createdAt,value
2019-03-19T00:02:14.950Z,3.22
2019-03-19T00:04:42.171Z,3.10
2019-03-19T00:07:09.399Z,3.50
2019-03-19T00:09:36.628Z,2.47
2019-03-19T00:12:03.909Z,2.90
2019-03-19T00:14:31.127Z,3.17
2019-03-19T00:16:58.350Z,3.08
2019-03-19T00:19:25.563Z,2.20
2019-03-19T00:21:52.776Z,3.17
2019-03-19T00:24:19.988Z,3.45
2019-03-19T00:26:47.202Z,2.55
2019-03-19T00:29:14.419Z,2.22
2019-03-19T00:31:41.626Z,3.40
2019-03-19T00:34:08.846Z,2.33
2019-03-19T00:36:36.062Z,3.08
2019-03-19T00:39:04.832Z,3.08
2019-03-19T00:41:32.123Z,2.47
2019-03-19T00:43:59.347Z,2.72
2019-03-19T00:46:26.554Z,2.75
2019-03-19T00:48:53.774Z,2.95
2019-03-19T00:51:20.995Z,3.65
2019-03-19T00:53:48.224Z,3.02
2019-03-19T00:56:15.431Z,3.33
2019-03-19T00:58:42.669Z,3.55
2019-03-19T01:01:09.900Z,3.58
2019-03-19T01:03:37.115Z,3.25
2019-03-19T01:06:04.335Z,2.52
2019-03-19T01:08:31.543Z,2.65
2019-03-19T01:10:58.766Z,3.50
2019-03-19T01:13:25.974Z,2.60
2019-03-19T01:15:53.219Z,2.80
2019-03-19T01:18:20.418Z,3.33
2019-03-19T01:20:47.643Z,3.67
2019-03-19T01:23:14.856Z,3.30
2019-03-19T01:25:54.729Z,3.37
2019-03-19T01:28:11.085Z,3.20
2019-03-19T01:30:38.302Z,3.02
2019-03-19T01:33:05.515Z,3.55
2019-03-19T01:35:32.730Z,3.22
2019-03-19T01:37:59.941Z,3.60
2019-03-19T01:40:27.159Z,2.98
2019-03-19T01:42:54.386Z,2.70
2019-03-19T01:45:21.594Z,3.05
2019-03-19T01:47:48.802Z,3.85
2019-03-19T01:50:16.034Z,2.98
2019-03-19T01:52:43.300Z,3.22
2019-03-19T01:55:14.127Z,3.37
2019-03-19T01:57:41.339Z,3.30
2019-03-19T02:00:15.345Z,3.10
2019-03-19T02:02:42.557Z,3.35
2019-03-19T02:05:09.782Z,3.30
2019-03-19T02:07:36.995Z,2.75
2019-03-19T02:10:05.787Z,3.12
2019-03-19T02:12:32.990Z,3.42
2019-03-19T02:15:00.353Z,2.90
2019-03-19T02:17:27.594Z,3.33
2019-03-19T02:19:54.802Z,3.67
2019-03-19T02:22:22.019Z,3.58
2019-03-19T02:24:49.506Z,3.22
2019-03-19T02:27:16.720Z,3.90
2019-03-19T02:29:43.933Z,3.87
2019-03-19T02:32:11.151Z,3.40
2019-03-19T02:34:38.362Z,2.70
2019-03-19T02:37:05.639Z,3.60
2019-03-19T02:39:32.970Z,4.10
2019-03-19T02:42:00.189Z,3.30
2019-03-19T02:44:27.406Z,3.30
2019-03-19T02:46:54.630Z,3.37
2019-03-19T02:49:22.224Z,3.70
2019-03-19T02:51:49.450Z,3.95
2019-03-19T02:54:16.661Z,3.98
2019-03-19T02:56:43.878Z,3.67
2019-03-19T02:59:11.092Z,3.02
2019-03-19T03:01:38.311Z,3.95
2019-03-19T03:04:05.522Z,4.50
2019-03-19T03:06:32.757Z,4.58
2019-03-19T03:08:59.952Z,4.45
2019-03-19T03:11:27.167Z,4.15
2019-03-19T03:13:54.376Z,3.83
2019-03-19T03:16:21.595Z,3.83
2019-03-19T03:18:48.809Z,4.28
2019-03-19T03:21:16.100Z,4.42
2019-03-19T03:23:43.312Z,4.10
2019-03-19T03:26:10.536Z,4.00
2019-03-19T03:28:37.753Z,4.28
2019-03-19T03:31:04.961Z,4.08
2019-03-19T03:33:32.177Z,3.70
2019-03-19T03:35:59.402Z,4.00
2019-03-19T03:38:26.701Z,4.05
2019-03-19T03:40:53.935Z,3.95
2019-03-19T03:43:21.144Z,4.92
2019-03-19T03:45:48.368Z,4.25
2019-03-19T03:48:15.575Z,4.20
2019-03-19T03:50:42.778Z,3.75
2019-03-19T03:53:10.024Z,4.35
2019-03-19T03:55:37.222Z,4.35
2019-03-19T03:58:04.443Z,4.85
2019-03-19T04:00:31.664Z,4.80
2019-03-19T04:02:58.880Z,5.30
2019-03-19T04:05:26.099Z,4.47
2019-03-19T04:07:53.320Z,4.17
2019-03-19T04:10:20.607Z,4.80
2019-03-19T04:12:47.828Z,4.03
2019-03-19T04:15:15.565Z,3.65
2019-03-19T04:17:42.776Z,5.25
2019-03-19T04:20:10.660Z,5.05
2019-03-19T04:22:37.881Z,4.25
2019-03-19T04:25:05.868Z,4.80
2019-03-19T04:27:33.096Z,4.53
2019-03-19T04:30:00.516Z,5.65
2019-03-19T04:32:27.721Z,6.15
2019-03-19T04:34:54.939Z,5.78
2019-03-19T04:37:22.164Z,4.97
2019-03-19T04:39:49.379Z,4.55
2019-03-19T04:42:16.613Z,5.30
2019-03-19T04:44:43.816Z,5.28
2019-03-19T04:47:11.031Z,5.62
2019-03-19T04:49:38.256Z,4.70
2019-03-19T04:52:05.471Z,5.33
2019-03-19T04:54:32.698Z,6.85
2019-03-19T04:56:59.920Z,5.10
2019-03-19T04:59:27.143Z,5.45
2019-03-19T05:01:54.354Z,4.40
2019-03-19T05:04:21.570Z,5.78
2019-03-19T05:06:48.787Z,4.80
2019-03-19T05:09:16.058Z,4.20
2019-03-19T05:11:43.297Z,5.25
2019-03-19T05:14:10.519Z,4.80
2019-03-19T05:16:37.730Z,4.10
2019-03-19T05:19:04.959Z,12.18
2019-03-19T05:21:32.179Z,11.95
2019-03-19T05:23:59.399Z,9.35
2019-03-19T05:26:26.616Z,9.65
2019-03-19T05:28:53.847Z,11.48
2019-03-19T05:31:21.080Z,10.25
2019-03-19T05:33:48.686Z,8.70
2019-03-19T05:36:15.895Z,10.23
2019-03-19T05:38:43.123Z,7.00
2019-03-19T05:41:10.354Z,7.37
2019-03-19T05:43:37.559Z,8.38
2019-03-19T05:46:04.781Z,7.47
2019-03-19T05:48:32.059Z,6.85
2019-03-19T05:50:59.263Z,4.85
2019-03-19T05:53:26.482Z,5.10
2019-03-19T05:55:53.690Z,5.47
2019-03-19T05:58:20.934Z,5.58
2019-03-19T06:00:48.154Z,6.35
2019-03-19T06:03:15.382Z,4.83
2019-03-19T06:05:42.603Z,4.90
2019-03-19T06:08:09.886Z,4.20
2019-03-19T06:10:37.108Z,4.58
2019-03-19T06:13:04.319Z,5.08
2019-03-19T06:15:31.539Z,4.92
2019-03-19T06:17:58.754Z,5.28
2019-03-19T06:20:25.974Z,5.22
2019-03-19T06:22:53.194Z,5.50
2019-03-19T06:25:20.419Z,5.55
2019-03-19T06:27:47.638Z,6.25
2019-03-19T06:30:18.558Z,5.62
2019-03-19T06:32:45.767Z,5.00
2019-03-19T06:35:13.464Z,5.22
2019-03-19T06:37:40.670Z,5.30
2019-03-19T06:40:09.440Z,4.95
2019-03-19T06:42:36.647Z,6.10
2019-03-19T06:45:05.245Z,5.50
2019-03-19T06:47:32.463Z,4.92
2019-03-19T06:49:59.687Z,6.10
2019-03-19T06:52:26.899Z,5.70
2019-03-19T06:54:54.122Z,6.10
2019-03-19T06:57:21.339Z,4.80
2019-03-19T06:59:48.559Z,5.67
2019-03-19T07:02:15.771Z,5.22
2019-03-19T07:04:43.010Z,6.20
2019-03-19T07:07:10.231Z,5.75
2019-03-19T07:09:37.452Z,5.42
2019-03-19T07:12:04.666Z,5.60
2019-03-19T07:14:31.885Z,4.87
2019-03-19T07:16:59.087Z,4.92
2019-03-19T07:19:26.314Z,5.75
2019-03-19T07:21:53.534Z,4.45
2019-03-19T07:24:20.742Z,5.12
2019-03-19T07:26:47.971Z,5.20
2019-03-19T07:29:15.205Z,4.53
2019-03-19T07:31:42.479Z,5.33
2019-03-19T07:34:09.689Z,5.60
2019-03-19T07:36:36.915Z,5.70
2019-03-19T07:39:05.663Z,5.03
2019-03-19T07:41:32.888Z,5.22
2019-03-19T07:44:00.095Z,6.05
2019-03-19T07:46:27.319Z,4.45
2019-03-19T07:48:54.528Z,5.50
2019-03-19T07:51:21.750Z,4.75
2019-03-19T07:53:48.963Z,5.10
2019-03-19T07:56:16.221Z,5.20
2019-03-19T07:58:45.431Z,5.50
2019-03-19T08:01:12.765Z,6.78
2019-03-19T08:03:39.980Z,7.22
2019-03-19T08:06:07.199Z,5.40
2019-03-19T08:08:34.406Z,4.87
2019-03-19T08:11:01.632Z,3.55
2019-03-19T08:13:28.848Z,4.03
2019-03-19T08:15:56.067Z,3.45
2019-03-19T08:18:23.287Z,4.12
2019-03-19T08:20:50.511Z,3.83
2019-03-19T08:23:17.727Z,4.15
2019-03-19T08:25:44.964Z,5.47
2019-03-19T08:28:12.182Z,5.33
2019-03-19T08:30:39.415Z,4.97
2019-03-19T08:33:06.642Z,5.15
2019-03-19T08:35:33.874Z,4.55
2019-03-19T08:38:01.092Z,5.08
2019-03-19T08:40:28.319Z,5.75
2019-03-19T08:42:55.534Z,5.40
2019-03-19T08:45:23.224Z,5.22
2019-03-19T08:47:50.438Z,5.65
2019-03-19T08:50:18.329Z,5.58
2019-03-19T08:52:45.715Z,6.12
2019-03-19T08:55:12.934Z,6.08
2019-03-19T08:57:40.158Z,5.60
2019-03-19T09:00:12.067Z,4.92
2019-03-19T09:02:39.287Z,5.90
2019-03-19T09:05:08.008Z,6.20
2019-03-19T09:07:35.226Z,5.85
2019-03-19T09:10:02.708Z,5.80
2019-03-19T09:12:29.933Z,6.28
2019-03-19T09:14:57.147Z,4.90
2019-03-19T09:17:24.382Z,5.75
2019-03-19T09:19:51.599Z,4.92
2019-03-19T09:22:18.826Z,5.53
2019-03-19T09:24:46.033Z,4.63
2019-03-19T09:27:13.254Z,5.50
2019-03-19T09:29:40.466Z,5.20
2019-03-19T09:32:07.686Z,4.90
2019-03-19T09:34:34.896Z,5.37
2019-03-19T09:37:02.126Z,5.50
2019-03-19T09:39:29.335Z,5.07
2019-03-19T09:41:56.546Z,5.00
2019-03-19T09:44:23.763Z,4.90
2019-03-19T09:46:50.978Z,5.00
2019-03-19T09:49:18.199Z,5.00
2019-03-19T09:51:45.421Z,5.67
2019-03-19T09:54:12.632Z,5.87
2019-03-19T09:56:39.842Z,4.50
2019-03-19T09:59:07.106Z,3.57
2019-03-19T10:01:34.330Z,5.60
2019-03-19T10:04:01.547Z,4.00
2019-03-19T10:06:28.760Z,3.83
2019-03-19T10:08:55.979Z,4.27
2019-03-19T10:11:23.200Z,5.07
2019-03-19T10:13:50.418Z,5.70
2019-03-19T10:16:17.631Z,5.07
2019-03-19T10:18:44.856Z,4.63
2019-03-19T10:21:12.071Z,4.30
2019-03-19T10:23:39.288Z,4.37
2019-03-19T10:26:06.504Z,4.03
2019-03-19T10:28:33.727Z,4.60
2019-03-19T10:31:00.947Z,5.67
2019-03-19T10:33:28.177Z,5.03
2019-03-19T10:35:55.383Z,4.67
2019-03-19T10:38:22.598Z,3.77
2019-03-19T10:40:49.806Z,4.37
2019-03-19T10:43:17.019Z,3.77
2019-03-19T10:45:44.255Z,3.37
2019-03-19T10:48:11.496Z,4.60
2019-03-19T10:50:38.682Z,5.10
2019-03-19T10:53:05.898Z,3.83
2019-03-19T10:55:33.107Z,3.73
2019-03-19T10:58:10.657Z,3.27
2019-03-19T11:00:29.270Z,5.40
2019-03-19T11:02:56.498Z,4.53
2019-03-19T11:05:23.969Z,3.97
2019-03-19T11:07:51.577Z,3.90
2019-03-19T11:10:18.842Z,4.07
2019-03-19T11:12:46.050Z,4.80
2019-03-19T11:15:14.231Z,4.17
2019-03-19T11:17:41.467Z,4.40
2019-03-19T11:20:10.290Z,4.43
2019-03-19T11:22:37.527Z,3.43
2019-03-19T11:25:06.282Z,3.57
2019-03-19T11:27:33.498Z,4.23
2019-03-19T11:30:00.711Z,4.30
2019-03-19T11:32:27.947Z,3.70
2019-03-19T11:34:55.146Z,2.83
2019-03-19T11:37:22.377Z,3.13
2019-03-19T11:39:49.588Z,4.10
2019-03-19T11:42:16.806Z,4.47
2019-03-19T11:44:44.023Z,2.90
2019-03-19T11:47:11.283Z,3.67
2019-03-19T11:49:38.501Z,3.23
2019-03-19T11:52:05.726Z,3.27
2019-03-19T11:54:32.942Z,3.93
2019-03-19T11:57:00.180Z,3.70
2019-03-19T11:59:27.397Z,3.10
2019-03-19T12:01:54.611Z,2.80
2019-03-19T12:04:21.835Z,3.60
2019-03-19T12:06:49.428Z,3.00
2019-03-19T12:09:16.639Z,3.57
2019-03-19T12:11:43.858Z,3.70
2019-03-19T12:14:11.077Z,4.63
2019-03-19T12:16:38.296Z,4.90
2019-03-19T12:19:05.506Z,3.50
2019-03-19T12:21:32.751Z,4.40
2019-03-19T12:23:59.966Z,3.63
2019-03-19T12:26:27.243Z,3.43
2019-03-19T12:28:54.451Z,4.07
2019-03-19T12:31:21.662Z,4.00
2019-03-19T12:33:48.895Z,4.30
2019-03-19T12:36:16.090Z,4.40
2019-03-19T12:38:43.303Z,3.70
2019-03-19T12:41:10.518Z,3.93
2019-03-19T12:43:37.747Z,4.50
2019-03-19T12:46:04.981Z,4.60
2019-03-19T12:48:32.183Z,4.60
2019-03-19T12:50:59.414Z,4.60
2019-03-19T12:53:26.626Z,3.70
2019-03-19T12:55:53.840Z,3.80
2019-03-19T12:58:21.054Z,4.17
2019-03-19T13:00:48.268Z,3.90
2019-03-19T13:03:15.487Z,4.10
2019-03-19T13:05:42.700Z,4.37
2019-03-19T13:08:09.915Z,3.53
2019-03-19T13:10:37.126Z,4.17
2019-03-19T13:13:04.410Z,4.80
2019-03-19T13:15:31.633Z,3.80
2019-03-19T13:17:58.834Z,3.03
2019-03-19T13:20:26.095Z,3.33
2019-03-19T13:22:53.302Z,3.37
2019-03-19T13:25:21.110Z,2.73
2019-03-19T13:27:48.323Z,4.13
2019-03-19T13:30:19.571Z,2.67
2019-03-19T13:32:46.792Z,3.50
2019-03-19T13:35:14.018Z,2.87
2019-03-19T13:37:41.227Z,3.00
2019-03-19T13:40:17.638Z,2.50
2019-03-19T13:42:44.845Z,2.30
2019-03-19T13:45:21.611Z,2.40
2019-03-19T13:47:48.823Z,2.30
2019-03-19T13:50:16.910Z,2.70
2019-03-19T13:52:44.136Z,3.53
2019-03-19T13:55:15.226Z,2.80
2019-03-19T13:57:42.495Z,2.83
2019-03-19T14:00:13.371Z,2.57
2019-03-19T14:02:40.592Z,2.50
2019-03-19T14:05:08.780Z,2.20
2019-03-19T14:07:35.993Z,2.57
2019-03-19T14:10:04.383Z,3.17
2019-03-19T14:12:31.594Z,3.57
2019-03-19T14:14:58.807Z,2.80
2019-03-19T14:17:26.023Z,2.87
2019-03-19T14:19:53.251Z,2.40
2019-03-19T14:22:20.471Z,2.23
2019-03-19T14:24:47.679Z,2.60
2019-03-19T14:27:14.891Z,2.53
2019-03-19T14:29:42.111Z,2.60
2019-03-19T14:32:09.341Z,2.60
2019-03-19T14:34:36.559Z,2.60
2019-03-19T14:37:03.784Z,7.33
2019-03-19T14:39:31.002Z,3.07
2019-03-19T14:41:58.207Z,3.13
2019-03-19T14:44:25.433Z,5.50
2019-03-19T14:46:52.643Z,3.03
2019-03-19T14:49:19.853Z,2.07
2019-03-19T14:51:47.070Z,1.60
2019-03-19T14:54:14.289Z,2.13
2019-03-19T14:56:41.503Z,1.80
2019-03-19T14:59:08.718Z,2.00
2019-03-19T15:01:35.938Z,1.90
2019-03-19T15:04:03.148Z,2.00
2019-03-19T15:06:30.362Z,2.17
2019-03-19T15:08:57.587Z,1.90
2019-03-19T15:11:24.808Z,2.08
2019-03-19T15:13:52.014Z,1.77
2019-03-19T15:16:19.246Z,3.27
2019-03-19T15:18:46.456Z,2.17
2019-03-19T15:21:13.683Z,2.33
2019-03-19T15:23:40.887Z,2.00
2019-03-19T15:26:08.119Z,1.60
2019-03-19T15:28:35.330Z,1.63
2019-03-19T15:31:02.555Z,1.60
2019-03-19T15:33:29.775Z,1.72
2019-03-19T15:35:56.997Z,1.37
2019-03-19T15:38:24.620Z,1.55
2019-03-19T15:40:51.850Z,2.10
2019-03-19T15:43:19.075Z,1.67
2019-03-19T15:45:46.301Z,2.15
2019-03-19T15:48:13.529Z,2.35
2019-03-19T15:50:40.759Z,2.20
2019-03-19T15:53:07.970Z,1.37
2019-03-19T15:55:35.240Z,2.10
2019-03-19T15:58:02.495Z,2.45
2019-03-19T16:00:29.728Z,1.80
2019-03-19T16:02:56.943Z,1.90
2019-03-19T16:05:24.170Z,2.47
2019-03-19T16:07:51.386Z,1.50
2019-03-19T16:10:18.663Z,1.90
2019-03-19T16:12:45.886Z,1.82
2019-03-19T16:15:13.688Z,1.72
2019-03-19T16:17:40.903Z,1.30
2019-03-19T16:20:14.979Z,1.60
2019-03-19T16:22:42.206Z,1.47
2019-03-19T16:25:09.506Z,1.30
2019-03-19T16:27:36.737Z,2.00
2019-03-19T16:30:08.598Z,2.10
2019-03-19T16:32:35.839Z,2.65
2019-03-19T16:35:03.615Z,1.80
2019-03-19T16:37:30.838Z,1.90
2019-03-19T16:39:58.055Z,2.30
2019-03-19T16:42:25.291Z,1.60
2019-03-19T16:44:52.506Z,1.30
2019-03-19T16:47:19.730Z,2.05
2019-03-19T16:49:46.950Z,1.72
2019-03-19T16:52:14.178Z,2.42
2019-03-19T16:54:41.403Z,3.30
2019-03-19T16:57:08.635Z,2.08
2019-03-19T16:59:35.860Z,2.35
2019-03-19T17:02:03.090Z,2.00
2019-03-19T17:04:30.306Z,1.85
2019-03-19T17:06:57.539Z,2.15
2019-03-19T17:09:24.766Z,2.08
2019-03-19T17:11:51.993Z,2.12
2019-03-19T17:14:19.215Z,2.05
2019-03-19T17:16:46.452Z,2.80
2019-03-19T17:19:13.666Z,2.12
2019-03-19T17:21:40.908Z,3.87
2019-03-19T17:24:08.127Z,3.50
2019-03-19T17:26:35.389Z,3.12
2019-03-19T17:29:02.612Z,4.92
2019-03-19T17:31:29.847Z,5.12
2019-03-19T17:33:57.082Z,7.92
2019-03-19T17:36:24.315Z,5.65
2019-03-19T17:38:51.535Z,4.20
2019-03-19T17:41:18.759Z,3.30
2019-03-19T17:43:45.984Z,4.28
2019-03-19T17:46:13.206Z,7.55
2019-03-19T17:48:40.428Z,5.67
2019-03-19T17:51:07.663Z,4.87
2019-03-19T17:53:34.887Z,5.00
2019-03-19T17:56:02.132Z,3.40
2019-03-19T17:58:29.345Z,4.10
2019-03-19T18:00:56.578Z,2.85
2019-03-19T18:03:23.808Z,2.70
2019-03-19T18:05:51.071Z,3.55
2019-03-19T18:08:18.306Z,3.20
2019-03-19T18:10:45.506Z,2.80
2019-03-19T18:13:12.737Z,2.60
2019-03-19T18:15:39.956Z,2.30
2019-03-19T18:18:07.171Z,3.00
2019-03-19T18:20:34.403Z,2.50
2019-03-19T18:23:01.626Z,2.25
2019-03-19T18:25:28.846Z,3.30
2019-03-19T18:27:56.074Z,2.85
2019-03-19T18:30:23.960Z,3.02
2019-03-19T18:32:51.190Z,2.52
2019-03-19T18:35:18.410Z,3.83
2019-03-19T18:37:45.711Z,5.45
2019-03-19T18:40:14.547Z,3.77
2019-03-19T18:42:41.848Z,4.10
2019-03-19T18:45:10.231Z,5.37
2019-03-19T18:47:37.501Z,3.27
2019-03-19T18:50:06.259Z,4.05
2019-03-19T18:52:33.487Z,3.75
2019-03-19T18:55:00.783Z,4.65
2019-03-19T18:57:28.011Z,5.30
2019-03-19T18:59:55.633Z,4.28
2019-03-19T19:02:22.859Z,4.22
2019-03-19T19:04:50.072Z,3.25
2019-03-19T19:07:17.292Z,1.90
2019-03-19T19:09:44.524Z,3.10
2019-03-19T19:12:11.749Z,3.65
2019-03-19T19:14:38.963Z,2.87
2019-03-19T19:17:06.202Z,2.83
2019-03-19T19:19:33.423Z,3.47
2019-03-19T19:22:00.634Z,2.67
2019-03-19T19:24:27.855Z,3.33
2019-03-19T19:26:55.070Z,4.17
2019-03-19T19:29:22.307Z,4.55
2019-03-19T19:31:49.523Z,5.53
2019-03-19T19:34:16.752Z,5.90
2019-03-19T19:36:43.967Z,6.70
2019-03-19T19:39:11.186Z,5.95
2019-03-19T19:41:38.830Z,5.85
2019-03-19T19:44:06.055Z,5.72
2019-03-19T19:46:33.271Z,5.90
2019-03-19T19:49:00.491Z,5.47
2019-03-19T19:51:27.819Z,3.85
2019-03-19T19:53:55.035Z,3.77
2019-03-19T19:56:22.251Z,3.67
2019-03-19T19:58:49.468Z,3.10
2019-03-19T20:01:16.687Z,4.53
2019-03-19T20:03:43.911Z,4.55
2019-03-19T20:06:11.135Z,4.65
2019-03-19T20:08:38.359Z,4.87
2019-03-19T20:11:05.574Z,5.72
2019-03-19T20:13:32.835Z,7.30
2019-03-19T20:16:00.034Z,7.20
2019-03-19T20:18:27.259Z,5.55
2019-03-19T20:20:54.487Z,5.50
2019-03-19T20:23:21.724Z,4.28
2019-03-19T20:25:48.934Z,3.62
2019-03-19T20:28:16.167Z,4.65
2019-03-19T20:30:43.395Z,4.85
2019-03-19T20:33:10.620Z,3.90
2019-03-19T20:35:37.850Z,4.50
2019-03-19T20:38:05.067Z,4.22
2019-03-19T20:40:32.291Z,5.83
2019-03-19T20:42:59.508Z,5.22
2019-03-19T20:45:28.315Z,4.20
2019-03-19T20:47:55.542Z,3.58
2019-03-19T20:50:24.003Z,4.33
2019-03-19T20:52:51.207Z,3.52
2019-03-19T20:55:18.435Z,4.75
2019-03-19T20:57:45.651Z,5.08
2019-03-19T21:00:14.034Z,4.20
2019-03-19T21:02:41.291Z,4.83
2019-03-19T21:05:09.407Z,5.55
2019-03-19T21:07:36.642Z,5.58
2019-03-19T21:10:08.295Z,4.97
2019-03-19T21:12:35.519Z,4.85
2019-03-19T21:15:03.214Z,3.77
2019-03-19T21:17:30.431Z,3.58
2019-03-19T21:19:57.667Z,2.70
2019-03-19T21:22:24.879Z,2.70
2019-03-19T21:24:52.102Z,3.25
2019-03-19T21:27:19.315Z,2.95
2019-03-19T21:29:46.549Z,3.45
2019-03-19T21:32:13.786Z,3.40
2019-03-19T21:34:41.032Z,3.58
2019-03-19T21:37:08.285Z,4.50
2019-03-19T21:39:35.543Z,4.50
2019-03-19T21:42:02.762Z,4.70
2019-03-19T21:44:29.983Z,4.03
2019-03-19T21:46:57.195Z,4.15
2019-03-19T21:49:24.411Z,3.55
2019-03-19T21:51:51.620Z,4.20
2019-03-19T21:54:18.854Z,5.30
2019-03-19T21:56:46.062Z,6.22
2019-03-19T21:59:13.703Z,5.75
2019-03-19T22:01:40.996Z,4.47
2019-03-19T22:04:15.372Z,5.72
2019-03-19T22:06:42.309Z,5.75
2019-03-19T22:09:09.535Z,3.98
2019-03-19T22:11:36.764Z,5.08
2019-03-19T22:14:03.975Z,4.78
2019-03-19T22:16:31.194Z,5.05
2019-03-19T22:18:58.442Z,4.62
2019-03-19T22:21:25.665Z,5.90
2019-03-19T22:23:52.915Z,4.25
2019-03-19T22:26:20.139Z,3.52
2019-03-19T22:28:47.434Z,3.80
2019-03-19T22:31:14.666Z,5.05
2019-03-19T22:33:41.874Z,4.72
2019-03-19T22:36:09.091Z,3.85
2019-03-19T22:38:36.309Z,4.53
2019-03-19T22:41:03.735Z,4.03
2019-03-19T22:43:31.012Z,4.20
2019-03-19T22:45:58.229Z,3.85
2019-03-19T22:48:25.443Z,4.45
2019-03-19T22:50:52.667Z,3.87
2019-03-19T22:53:19.886Z,4.70
2019-03-19T22:55:47.102Z,4.22
2019-03-19T22:58:14.315Z,4.85
2019-03-19T23:00:43.355Z,3.60
2019-03-19T23:03:10.650Z,4.12
2019-03-19T23:05:37.995Z,4.25
2019-03-19T23:08:05.481Z,3.42
2019-03-19T23:10:32.698Z,4.12
2019-03-19T23:12:59.926Z,3.72
2019-03-19T23:15:27.151Z,4.45
2019-03-19T23:17:54.370Z,4.65
2019-03-19T23:20:21.646Z,4.47
2019-03-19T23:22:48.862Z,4.55
2019-03-19T23:25:16.647Z,4.78
2019-03-19T23:27:43.862Z,4.95
2019-03-19T23:30:15.279Z,3.17
2019-03-19T23:32:42.499Z,3.90
2019-03-19T23:35:09.827Z,4.05
2019-03-19T23:37:37.079Z,3.80
2019-03-19T23:40:05.826Z,3.67
2019-03-19T23:42:33.051Z,3.35
2019-03-19T23:45:00.374Z,4.42
2019-03-19T23:47:27.647Z,3.58
2019-03-19T23:49:54.863Z,4.90
2019-03-19T23:52:22.132Z,3.75
2019-03-19T23:54:49.367Z,3.90
2019-03-19T23:57:16.590Z,4.35
2019-03-19T23:59:43.809Z,4.92
